Seaguardian — 9HHP7 — position and weather

sailwx.info

Track history (hours):
 
Tides and Currents Weather Stations Pressure Air Temp Water Temp Dewpoint Dewpoint Depression Visibility Wind Speed Wind Dir Waves Ship Positions

Seaguardian

Last reported at 2018-May-25 15:55 UTC. Time now 2018-May-25 22:45 UTC.
Position N 39°54' E 025°40'.

Length 225 m; draft 6.7 m.

Type: Cargo ship. MMSI: 215247000.

Date/timePositionNaut miles runAvg speedWind from/ knotsBaromVisibWave heightAir tempDewpointWater temp
2018-May-25 15:55N 39°54' E 025°40'0 0.7
2018-May-25 15:30N 39°54' E 025°41'14510.0
2018-May-25 00:59N 37°44' E 024°18'1014.2
2018-May-25 00:16N 37°37' E 024°09'44313.1
2018-May-23 14:19N 36°33' E 014°60'615.5
2018-May-23 13:56N 36°37' E 014°54'  
2018-May-18 16:00N 37°03' E 015°49'813.6
2018-May-18 15:27N 37°09' E 015°55'613.5
2018-May-18 14:59N 37°14' E 016°00'1413.7
2018-May-18 13:56N 37°25' E 016°12'714.1
2018-May-18 13:27N 37°30' E 016°17'714.5
2018-May-18 13:00N 37°35' E 016°22'45111.3
2018-May-16 21:07N 44°40' E 013°00'213.3
2018-May-16 21:00N 44°41' E 012°60'713.2
2018-May-16 20:29N 44°48' E 012°56'913.7
2018-May-16 19:49N 44°56' E 012°49'413.6
2018-May-16 19:30N 44°59' E 012°47'713.5
2018-May-16 19:00N 45°06' E 012°43'714.0
2018-May-16 18:30N 45°10' E 012°35'612.2
2018-May-16 18:00N 45°15' E 012°30'612.7
2018-May-16 17:30N 45°19' E 012°23'4 7.7
2018-May-16 17:00N 45°20' E 012°18'4 7.1
2018-May-16 16:30N 45°24' E 012°16'3 6.4
2018-May-16 16:00N 45°27' E 012°16'1 1.1
2018-May-16 15:30N 45°27' E 012°15'0 0.0
2018-May-16 14:58N 45°27' E 012°15'0 0.0
2018-May-16 14:28N 45°27' E 012°15'0 0.0
2018-May-16 13:58N 45°27' E 012°15'0 0.0
2018-May-16 13:25N 45°27' E 012°15'0 0.0
2018-May-16 12:58N 45°27' E 012°15'0 0.0
2018-May-16 12:22N 45°27' E 012°15'0 0.0
2018-May-16 11:58N 45°27' E 012°15'0 0.0
2018-May-16 11:28N 45°27' E 012°15'0 0.0
2018-May-16 10:55N 45°27' E 012°15'0 0.0
2018-May-16 10:28N 45°27' E 012°15'0 0.0
2018-May-16 09:58N 45°27' E 012°15'0 0.0
2018-May-16 09:31N 45°27' E 012°15'0 0.0
2018-May-16 09:01N 45°27' E 012°15'0 0.0
2018-May-16 08:30N 45°27' E 012°15'0 0.0
2018-May-16 08:01N 45°27' E 012°15'0 0.0
2018-May-16 07:30N 45°27' E 012°15'0 0.0
2018-May-16 07:00N 45°27' E 012°15'0 0.0
2018-May-16 06:30N 45°27' E 012°15'0 0.0
2018-May-16 06:00N 45°27' E 012°15'0 0.0
2018-May-16 05:30N 45°27' E 012°15'0 0.0
2018-May-16 05:00N 45°27' E 012°15'0 0.0
2018-May-16 04:30N 45°27' E 012°15'0 0.0
2018-May-16 04:00N 45°27' E 012°15'0 0.0
2018-May-16 03:24N 45°27' E 012°15'0 0.0
2018-May-16 02:57N 45°27' E 012°15'0 0.0
2018-May-16 02:30N 45°27' E 012°15'0 0.0
2018-May-16 02:00N 45°27' E 012°15'0 0.0
2018-May-16 01:30N 45°27' E 012°15'0 0.0
2018-May-16 01:00N 45°27' E 012°15'0 0.0
2018-May-16 00:30N 45°27' E 012°15'0 0.0
2018-May-16 00:00N 45°27' E 012°15'0 0.0
2018-May-15 23:30N 45°27' E 012°15'0 0.0
2018-May-15 22:57N 45°27' E 012°15'0 0.0
2018-May-15 22:27N 45°27' E 012°15'0 0.0
2018-May-15 22:00N 45°27' E 012°15'0 0.0
2018-May-15 21:30N 45°27' E 012°15'0 0.0
2018-May-15 21:00N 45°27' E 012°15'0 0.0
2018-May-15 20:30N 45°27' E 012°15'0 0.0
2018-May-15 20:00N 45°27' E 012°15'0 0.0
2018-May-15 19:30N 45°27' E 012°15'0 0.0
2018-May-15 19:00N 45°27' E 012°15'0 0.0
2018-May-15 18:30N 45°27' E 012°15'0 0.0
2018-May-15 18:00N 45°27' E 012°15'0 0.0
2018-May-15 17:30N 45°27' E 012°15'0 0.0
2018-May-15 17:00N 45°27' E 012°15'0 0.0
2018-May-15 16:30N 45°27' E 012°15'0 0.0
2018-May-15 16:00N 45°27' E 012°15'  
Track history (hours):
 
Tides and Currents Weather Stations Pressure Air Temp Water Temp Dewpoint Dewpoint Depression Visibility Wind Speed Wind Dir Waves Ship Positions

Seaguardian

Last reported at 2018-May-25 15:55 UTC. Time now 2018-May-25 22:45 UTC.
Position N 39°54' E 025°40'.

Length 225 m; draft 6.7 m.

Type: Cargo ship. MMSI: 215247000.

Date/timePositionNaut miles runAvg speedWind from/ knotsBaromVisibWave heightAir tempDewpointWater temp
2018-May-25 15:55N 39°54' E 025°40'0 0.7
2018-May-25 15:30N 39°54' E 025°41'14510.0
2018-May-25 00:59N 37°44' E 024°18'1014.2
2018-May-25 00:16N 37°37' E 024°09'44313.1
2018-May-23 14:19N 36°33' E 014°60'615.5
2018-May-23 13:56N 36°37' E 014°54'  
2018-May-18 16:00N 37°03' E 015°49'813.6
2018-May-18 15:27N 37°09' E 015°55'613.5
2018-May-18 14:59N 37°14' E 016°00'1413.7
2018-May-18 13:56N 37°25' E 016°12'714.1
2018-May-18 13:27N 37°30' E 016°17'714.5
2018-May-18 13:00N 37°35' E 016°22'45111.3
2018-May-16 21:07N 44°40' E 013°00'213.3
2018-May-16 21:00N 44°41' E 012°60'713.2
2018-May-16 20:29N 44°48' E 012°56'913.7
2018-May-16 19:49N 44°56' E 012°49'413.6
2018-May-16 19:30N 44°59' E 012°47'713.5
2018-May-16 19:00N 45°06' E 012°43'714.0
2018-May-16 18:30N 45°10' E 012°35'612.2
2018-May-16 18:00N 45°15' E 012°30'612.7
2018-May-16 17:30N 45°19' E 012°23'4 7.7
2018-May-16 17:00N 45°20' E 012°18'4 7.1
2018-May-16 16:30N 45°24' E 012°16'3 6.4
2018-May-16 16:00N 45°27' E 012°16'1 1.1
2018-May-16 15:30N 45°27' E 012°15'0 0.0
2018-May-16 14:58N 45°27' E 012°15'0 0.0
2018-May-16 14:28N 45°27' E 012°15'0 0.0
2018-May-16 13:58N 45°27' E 012°15'0 0.0
2018-May-16 13:25N 45°27' E 012°15'0 0.0
2018-May-16 12:58N 45°27' E 012°15'0 0.0
2018-May-16 12:22N 45°27' E 012°15'0 0.0
2018-May-16 11:58N 45°27' E 012°15'0 0.0
2018-May-16 11:28N 45°27' E 012°15'0 0.0
2018-May-16 10:55N 45°27' E 012°15'0 0.0
2018-May-16 10:28N 45°27' E 012°15'0 0.0
2018-May-16 09:58N 45°27' E 012°15'0 0.0
2018-May-16 09:31N 45°27' E 012°15'0 0.0
2018-May-16 09:01N 45°27' E 012°15'0 0.0
2018-May-16 08:30N 45°27' E 012°15'0 0.0
2018-May-16 08:01N 45°27' E 012°15'0 0.0
2018-May-16 07:30N 45°27' E 012°15'0 0.0
2018-May-16 07:00N 45°27' E 012°15'0 0.0
2018-May-16 06:30N 45°27' E 012°15'0 0.0
2018-May-16 06:00N 45°27' E 012°15'0 0.0
2018-May-16 05:30N 45°27' E 012°15'0 0.0
2018-May-16 05:00N 45°27' E 012°15'0 0.0
2018-May-16 04:30N 45°27' E 012°15'0 0.0
2018-May-16 04:00N 45°27' E 012°15'0 0.0
2018-May-16 03:24N 45°27' E 012°15'0 0.0
2018-May-16 02:57N 45°27' E 012°15'0 0.0
2018-May-16 02:30N 45°27' E 012°15'0 0.0
2018-May-16 02:00N 45°27' E 012°15'0 0.0
2018-May-16 01:30N 45°27' E 012°15'0 0.0
2018-May-16 01:00N 45°27' E 012°15'0 0.0
2018-May-16 00:30N 45°27' E 012°15'0 0.0
2018-May-16 00:00N 45°27' E 012°15'0 0.0
2018-May-15 23:30N 45°27' E 012°15'0 0.0
2018-May-15 22:57N 45°27' E 012°15'0 0.0
2018-May-15 22:27N 45°27' E 012°15'0 0.0
2018-May-15 22:00N 45°27' E 012°15'0 0.0
2018-May-15 21:30N 45°27' E 012°15'0 0.0
2018-May-15 21:00N 45°27' E 012°15'0 0.0
2018-May-15 20:30N 45°27' E 012°15'0 0.0
2018-May-15 20:00N 45°27' E 012°15'0 0.0
2018-May-15 19:30N 45°27' E 012°15'0 0.0
2018-May-15 19:00N 45°27' E 012°15'0 0.0
2018-May-15 18:30N 45°27' E 012°15'0 0.0
2018-May-15 18:00N 45°27' E 012°15'0 0.0
2018-May-15 17:30N 45°27' E 012°15'0 0.0
2018-May-15 17:00N 45°27' E 012°15'0 0.0
2018-May-15 16:30N 45°27' E 012°15'0 0.0
2018-May-15 16:00N 45°27' E 012°15'  

Dump ship's entire track history